Portada
METAR-TAF:

METAR-TAF

Aeroports :

Kota Bharu, Malàisia

latitud: 06-10N, longitud: 102-17E, altitud: 5 m

Observació

L'informe es va fer fa 45 minuts, a les 17:00 UTC
Vent 3 kt amb direcció variable
Temperatura 26°C
Humitat 84%
Pressió 1010 hPa
Visibilitat: 7000 m
Escasses núvols a una alçada de 1700 ft, Cumulonimbus.
Núvols disperses a una alçada de 14000 ft
Cel ennuvolat a una alçada de 28000 ft
tempesta

METAR: WMKC 211700Z VRB03KT 7000 TS FEW017CB SCT140 BKN280 26/23 Q1010

Hora: 01:45 (17:45 UTC)

Pronòstic

L'informe es va fer fa 45 minuts, a les 17:00 UTC
Pronòstic vàlid del 21 a les 18 UTC al 22 a les 18 UTC
Vent 3 kt amb direcció variable
Visibilitat: 6000 m
Escasses núvols a una alçada de 2000 ft
Evolucionant progressivament
l' 22 a les 00 UTC al 22 a les 02 UTC
Escasses núvols a una alçada de 1800 ft

TAF: WMKC 211700Z 2118/2218 VRB03KT 6000 FEW020 BECMG 2200/2202 FEW018

Observacions i pronòstics meteorològics de més de 4000 aeroports (METAR i TAF).

Les estacions disponibles són els punts grocs i vermells al mapa.

Posi el ratolí al punt desitjat per veure el nom de l'estació.

Feu clic per veure les observacions i els pronòstics meteorològics.

Per canviar el mapa: feu clic els botons verds amb una creu de color negre per apropar; al botó verd amb un guió per allunyar la imatge; o en les fletxes verdes per a mapes adjacents.


METAR-TAF: